Time;durP1;ratioP1;P1;durP2;ratioP2;P2;SDS_P1;SDS_P2;PMS_P1;PMS_P2;Temp;Humidity;BMP_temperature;BMP_pressure;BME280_temperature;BME280_humidity;BME280_pressure;Samples;Min_cycle;Max_cycle;Signal;HPM_P1;HPM_P2
2021/12/28 00:02:03;;;;;;;;;0.00;0.00;;;;;12.82;75.52;98565.44;5098047;27;46405;-73
2021/12/28 00:04:29;;;;;;;;;1.00;0.00;;;;;12.82;75.88;98557.56;5101757;27;46312;-74
2021/12/28 00:06:54;;;;;;;;;0.00;0.00;;;;;12.75;75.57;98548.72;5092350;27;45780;-74
2021/12/28 00:09:19;;;;;;;;;1.00;0.00;;;;;12.80;75.57;98555.09;5093268;27;45747;-76
2021/12/28 00:11:45;;;;;;;;;1.50;0.00;;;;;12.80;75.85;98549.84;5086704;27;46376;-74
2021/12/28 00:14:10;;;;;;;;;0.00;0.00;;;;;12.80;75.65;98538.53;5092550;27;45650;-75
2021/12/28 00:19:30;;;;;;;;;0.75;0.00;;;;;12.80;75.80;98526.19;5071222;27;45653;-75
2021/12/28 00:21:56;;;;;;;;;0.00;0.00;;;;;12.77;75.86;98523.13;5066093;27;45900;-74
2021/12/28 00:24:21;;;;;;;;;1.50;0.50;;;;;12.78;75.74;98520.31;5062542;28;45853;-74
2021/12/28 00:26:46;;;;;;;;;0.75;0.25;;;;;12.77;75.82;98523.94;5068184;28;45651;-74
2021/12/28 00:29:12;;;;;;;;;0.00;0.00;;;;;12.79;75.98;98531.66;5073304;28;45633;-74
2021/12/28 00:31:37;;;;;;;;;1.00;0.00;;;;;12.76;75.82;98521.47;5072803;28;45725;-74
2021/12/28 00:34:02;;;;;;;;;0.00;0.00;;;;;12.76;76.13;98529.34;5072156;28;45889;-73
2021/12/28 00:36:28;;;;;;;;;1.75;0.00;;;;;12.77;76.18;98528.38;5067889;27;45940;-73
2021/12/28 00:38:53;;;;;;;;;0.75;0.00;;;;;12.75;75.94;98525.09;5073362;28;45634;-74
2021/12/28 00:41:20;;;;;;;;;1.00;1.00;;;;;12.78;75.84;98511.63;5055907;28;46419;-74
2021/12/28 00:43:46;;;;;;;;;0.75;0.00;;;;;12.74;75.82;98510.34;5073124;28;46373;-76
2021/12/28 00:46:11;;;;;;;;;1.00;0.00;;;;;12.75;76.38;98510.13;5058908;28;45744;-73
2021/12/28 00:48:37;;;;;;;;;0.25;0.00;;;;;12.75;75.89;98506.69;5072941;28;45812;-75
2021/12/28 00:51:05;;;;;;;;;0.00;0.00;;;;;12.75;76.19;98514.56;5073046;28;46380;-74
2021/12/28 00:53:32;;;;;;;;;1.00;0.00;;;;;12.77;76.25;98523.13;5060610;27;46049;-74
2021/12/28 00:55:57;;;;;;;;;1.00;0.00;;;;;12.73;76.22;98506.06;5082211;27;45634;-74
2021/12/28 00:58:23;;;;;;;;;0.00;0.00;;;;;12.75;76.17;98517.19;5101524;27;45698;-75
2021/12/28 01:00:50;;;;;;;;;0.00;0.00;;;;;12.75;76.02;98527.72;5109333;27;46106;-74
2021/12/28 01:03:16;;;;;;;;;0.25;0.25;;;;;12.78;76.15;98543.16;5091628;27;48241;-74
2021/12/28 01:05:44;;;;;;;;;0.00;0.00;;;;;12.78;76.19;98530.84;5083196;27;45829;-76
2021/12/28 01:08:10;;;;;;;;;0.00;0.00;;;;;12.75;76.37;98531.16;5095303;27;45743;-74
2021/12/28 01:10:43;;;;;;;;;0.00;0.00;;;;;12.72;76.21;98523.63;5110742;27;46651;-75
2021/12/28 01:13:10;;;;;;;;;0.00;0.00;;;;;12.78;76.19;98530.00;5115463;27;46158;-74
2021/12/28 01:15:36;;;;;;;;;0.00;0.00;;;;;12.75;76.42;98535.59;5095081;27;45611;-74
2021/12/28 01:18:03;;;;;;;;;0.00;0.00;;;;;12.75;76.68;98538.22;5095114;27;45676;-74
2021/12/28 01:20:28;;;;;;;;;0.00;0.00;;;;;12.72;76.53;98539.41;5095369;27;46085;-73
2021/12/28 01:22:54;;;;;;;;;0.00;0.00;;;;;12.73;76.56;98540.22;5102576;27;45589;-73
2021/12/28 01:25:20;;;;;;;;;0.00;0.00;;;;;12.69;76.44;98533.66;5108049;27;45654;-75
2021/12/28 01:27:46;;;;;;;;;0.00;0.00;;;;;12.72;76.76;98539.41;5097528;27;45756;-74
2021/12/28 01:30:13;;;;;;;;;0.00;0.00;;;;;12.65;76.65;98532.38;5100477;27;45805;-74
2021/12/28 01:32:39;;;;;;;;;0.00;0.00;;;;;12.73;76.92;98542.84;5102948;27;45895;-75
2021/12/28 01:35:07;;;;;;;;;0.00;0.00;;;;;12.73;77.20;98537.59;5082832;27;45767;-76
2021/12/28 01:37:32;;;;;;;;;0.00;0.00;;;;;12.72;77.41;98542.03;5056196;27;45775;-74
2021/12/28 01:39:58;;;;;;;;;0.00;0.00;;;;;12.72;77.44;98547.28;5074856;27;46766;-75
2021/12/28 01:42:24;;;;;;;;;0.00;0.00;;;;;12.74;77.10;98541.88;5074457;27;45854;-75
2021/12/28 01:44:50;;;;;;;;;0.00;0.00;;;;;12.69;77.22;98537.09;5060031;27;46534;-76
2021/12/28 01:47:17;;;;;;;;;0.00;0.00;;;;;12.74;77.19;98550.53;5079030;27;45746;-74
2021/12/28 01:49:44;;;;;;;;;0.00;0.00;;;;;12.76;77.50;98558.25;5074145;28;47639;-75
2021/12/28 01:52:10;;;;;;;;;0.00;0.00;;;;;12.76;77.73;98576.66;5074606;27;46396;-78
2021/12/28 01:54:35;;;;;;;;;0.00;0.00;;;;;12.76;77.65;98574.03;5055912;28;45764;-77
2021/12/28 01:57:01;;;;;;;;;0.00;0.00;;;;;12.74;77.66;98570.78;5074179;27;45527;-74
2021/12/28 01:59:26;;;;;;;;;0.00;0.00;;;;;12.79;77.49;98576.31;5081793;27;45596;-75
2021/12/28 02:01:52;;;;;;;;;0.00;0.00;;;;;12.81;77.84;98574.31;5081440;27;46113;-74
2021/12/28 02:04:20;;;;;;;;;0.00;0.00;;;;;12.84;77.52;98587.13;5068437;28;46054;-72
2021/12/28 02:06:47;;;;;;;;;0.00;0.00;;;;;12.85;77.86;98609.78;5087456;27;45777;-78
2021/12/28 02:09:13;;;;;;;;;0.00;0.00;;;;;12.83;77.74;98607.34;5073993;28;45664;-74
2021/12/28 02:11:39;;;;;;;;;0.00;0.00;;;;;12.90;77.47;98620.63;5074008;27;45619;-75
2021/12/28 02:14:06;;;;;;;;;0.00;0.00;;;;;12.86;77.75;98628.00;5055655;28;45686;-76
2021/12/28 02:16:37;;;;;;;;;0.00;0.00;;;;;12.94;77.68;98635.03;5055749;27;45623;-76
2021/12/28 02:19:05;;;;;;;;;0.00;0.00;;;;;12.93;77.82;98659.69;5079828;27;47296;-73
2021/12/28 02:21:33;;;;;;;;;0.00;0.00;;;;;12.89;78.08;98619.78;5077900;27;45782;-73
2021/12/28 02:24:00;;;;;;;;;0.00;0.00;;;;;12.96;78.00;98633.03;5073463;27;45725;-74
2021/12/28 02:26:26;;;;;;;;;0.00;0.00;;;;;12.95;78.08;98640.13;5087228;27;45734;-74
2021/12/28 02:28:52;;;;;;;;;0.00;0.00;;;;;12.92;77.93;98679.88;5073648;27;46317;-73
2021/12/28 02:31:17;;;;;;;;;0.00;0.00;;;;;12.93;77.76;98646.53;5087336;27;45673;-75
2021/12/28 02:33:44;;;;;;;;;0.00;0.00;;;;;12.92;78.03;98658.03;5073478;27;45677;-76
2021/12/28 02:36:10;;;;;;;;;0.00;0.00;;;;;12.87;77.96;98655.94;5105237;27;46079;-74
2021/12/28 02:38:35;;;;;;;;;0.00;0.00;;;;;12.91;77.58;98659.84;5086404;27;46538;-75
2021/12/28 02:41:02;;;;;;;;;0.00;0.00;;;;;12.92;77.53;98664.13;5107760;27;46093;-74
2021/12/28 02:43:28;;;;;;;;;0.00;0.00;;;;;12.92;77.86;98666.75;5086216;27;45682;-74
2021/12/28 02:45:57;;;;;;;;;0.00;0.00;;;;;12.88;77.76;98669.88;5091361;27;46210;-74
2021/12/28 02:48:23;;;;;;;;;0.00;0.00;;;;;12.91;77.77;98683.50;5105324;27;46329;-75
2021/12/28 02:50:52;;;;;;;;;0.00;0.00;;;;;12.91;77.40;98694.00;5095550;27;45814;-73
2021/12/28 02:53:18;;;;;;;;;0.00;0.00;;;;;12.88;77.83;98693.53;5101853;27;45601;-74
2021/12/28 02:55:45;;;;;;;;;0.00;0.00;;;;;12.90;77.43;98707.34;5094827;27;45855;-75
2021/12/28 02:58:23;;;;;;;;;0.00;0.00;;;;;12.88;77.48;98719.81;5093648;27;46036;-75
2021/12/28 03:01:09;;;;;;;;;0.00;0.00;;;;;12.88;77.71;98719.81;5107402;27;46077;-75
2021/12/28 03:03:36;;;;;;;;;0.00;0.00;;;;;12.82;77.35;98721.31;5107191;27;45576;-73
2021/12/28 03:06:04;;;;;;;;;0.00;0.00;;;;;12.86;77.63;98733.13;5101643;27;45657;-74
2021/12/28 03:08:31;;;;;;;;;0.00;0.00;;;;;12.82;77.30;98731.00;5098407;27;48458;-75
2021/12/28 03:11:01;;;;;;;;;0.00;0.00;;;;;12.86;77.37;98727.03;5097902;27;45891;-75
2021/12/28 03:13:34;;;;;;;;;0.00;0.00;;;;;12.84;77.35;98726.41;5093601;27;46049;-75
2021/12/28 03:15:59;;;;;;;;;0.25;0.00;;;;;12.86;77.35;98730.50;5092832;27;45845;-73
2021/12/28 03:18:25;;;;;;;;;0.00;0.00;;;;;12.86;77.39;98733.13;5093355;27;46897;-75
2021/12/28 03:20:51;;;;;;;;;1.00;0.00;;;;;12.88;76.96;98740.84;5093421;27;45616;-75
2021/12/28 03:23:19;;;;;;;;;0.00;0.00;;;;;12.88;77.35;98736.41;5103765;27;45753;-76
2021/12/28 03:25:45;;;;;;;;;0.00;0.00;;;;;12.87;77.11;98736.56;5113441;27;45925;-73
2021/12/28 03:28:20;;;;;;;;;0.00;0.00;;;;;12.89;77.27;98742.50;5105889;27;46408;-73
2021/12/28 03:30:46;;;;;;;;;0.00;0.00;;;;;12.86;77.16;98738.38;5106127;27;46257;-73
2021/12/28 03:33:11;;;;;;;;;0.00;0.00;;;;;12.91;76.95;98757.09;5094162;27;45712;-76
2021/12/28 03:35:37;;;;;;;;;0.00;0.00;;;;;12.91;77.04;98751.84;5105625;27;45676;-74
2021/12/28 03:38:02;;;;;;;;;0.00;0.00;;;;;12.94;76.97;98750.69;5093787;27;47367;-75
2021/12/28 03:40:28;;;;;;;;;0.00;0.00;;;;;12.96;77.11;98762.66;5105715;27;47091;-74
2021/12/28 03:42:53;;;;;;;;;0.00;0.00;;;;;12.97;77.17;98761.66;5095333;27;45754;-74
2021/12/28 03:45:19;;;;;;;;;0.00;0.00;;;;;12.98;77.07;98757.25;5096244;27;46118;-74
2021/12/28 03:47:44;;;;;;;;;0.00;0.00;;;;;13.01;76.58;98762.97;5105957;27;46419;-74
2021/12/28 03:50:11;;;;;;;;;0.00;0.00;;;;;13.00;76.77;98761.34;5105545;27;46085;-74
2021/12/28 03:52:38;;;;;;;;;0.00;0.00;;;;;13.01;76.83;98762.97;5077906;27;46049;-74
2021/12/28 03:55:05;;;;;;;;;0.00;0.00;;;;;13.00;76.91;98758.72;5105734;27;45651;-74
2021/12/28 03:57:31;;;;;;;;;0.00;0.00;;;;;13.02;76.55;98761.97;5095747;27;45687;-73
2021/12/28 03:59:56;;;;;;;;;0.00;0.00;;;;;13.07;76.73;98758.00;5105838;27;46544;-75
2021/12/28 04:02:21;;;;;;;;;0.50;0.00;;;;;13.09;76.58;98767.38;5085383;27;46297;-74
2021/12/28 04:04:47;;;;;;;;;0.00;0.00;;;;;12.95;76.58;98755.78;5092570;27;45886;-79
2021/12/28 04:07:20;;;;;;;;;0.00;0.00;;;;;13.09;76.11;98770.03;5106109;27;46678;-73
2021/12/28 04:12:12;;;;;;;;;0.00;0.00;;;;;13.09;76.60;98780.53;5106258;27;45602;-73
2021/12/28 04:14:37;;;;;;;;;0.00;0.00;;;;;13.09;76.56;98780.53;5092419;27;45794;-77
2021/12/28 04:17:03;;;;;;;;;0.00;0.00;;;;;13.07;76.43;98779.06;5092412;27;46369;-76
2021/12/28 04:19:28;;;;;;;;;0.00;0.00;;;;;13.06;76.14;98780.88;5097729;27;46805;-75
2021/12/28 04:21:53;;;;;;;;;1.00;0.00;;;;;13.08;76.65;98785.94;5074252;27;46090;-76
2021/12/28 04:24:19;;;;;;;;;0.00;0.00;;;;;13.12;76.25;98784.69;5098793;27;45649;-77
2021/12/28 04:26:44;;;;;;;;;0.00;0.00;;;;;13.11;76.31;98789.09;5092159;27;45824;-75
2021/12/28 04:29:10;;;;;;;;;0.00;0.00;;;;;13.09;76.44;98791.06;5074081;27;46998;-75
2021/12/28 04:31:35;;;;;;;;;0.00;0.00;;;;;13.14;76.29;98803.72;5090976;27;45640;-76
2021/12/28 04:34:01;;;;;;;;;0.00;0.00;;;;;13.15;76.55;98814.06;5092169;27;45639;-75
2021/12/28 04:36:26;;;;;;;;;2.00;0.00;;;;;13.14;76.48;98807.16;5100286;27;47630;-74
2021/12/28 04:38:52;;;;;;;;;0.00;0.00;;;;;13.14;76.17;98801.09;5081071;27;46253;-74
2021/12/28 04:41:18;;;;;;;;;0.00;0.00;;;;;13.19;76.30;98811.91;5105981;27;45588;-74
2021/12/28 04:43:45;;;;;;;;;0.00;0.00;;;;;13.19;75.90;98812.75;5100093;27;45942;-76
2021/12/28 04:46:11;;;;;;;;;0.00;0.00;;;;;13.20;75.90;98810.94;5098065;27;45714;-75
2021/12/28 04:48:36;;;;;;;;;0.00;0.00;;;;;13.21;76.11;98812.56;5104942;27;45694;-73
2021/12/28 04:51:03;;;;;;;;;0.00;0.00;;;;;13.23;76.27;98802.69;5088817;27;45805;-74
2021/12/28 04:53:28;;;;;;;;;0.00;0.00;;;;;13.15;75.66;98797.47;5089722;27;45944;-74
2021/12/28 04:55:54;;;;;;;;;0.00;0.00;;;;;13.23;76.01;98808.78;5091844;27;46307;-75
2021/12/28 04:58:20;;;;;;;;;0.00;0.00;;;;;13.12;75.55;98782.06;5092105;27;47342;-74
2021/12/28 05:00:47;;;;;;;;;0.00;0.00;;;;;13.25;75.61;98806.81;5105607;27;45635;-73
2021/12/28 05:03:14;;;;;;;;;0.00;0.00;;;;;13.28;76.01;98811.72;5104120;27;45500;-73
2021/12/28 05:05:43;;;;;;;;;0.00;0.00;;;;;13.30;75.50;98808.91;5097964;27;45927;-74
2021/12/28 05:08:11;;;;;;;;;0.00;0.00;;;;;13.31;75.81;98824.53;5101517;27;48078;-74
2021/12/28 05:10:37;;;;;;;;;0.00;0.00;;;;;13.34;75.71;98831.25;5109024;27;45588;-75
2021/12/28 05:13:03;;;;;;;;;0.25;0.00;;;;;13.29;75.64;98818.63;5096103;27;45680;-72
2021/12/28 05:15:28;;;;;;;;;2.00;0.00;;;;;13.36;75.50;98839.81;5095213;27;45564;-75
2021/12/28 05:17:54;;;;;;;;;0.00;0.00;;;;;13.35;75.07;98830.25;5095284;27;46134;-73
2021/12/28 05:20:19;;;;;;;;;0.50;0.00;;;;;13.40;75.49;98844.53;5095752;27;45514;-76
2021/12/28 05:22:44;;;;;;;;;0.00;0.00;;;;;13.37;75.40;98847.53;5102147;27;45761;-74
2021/12/28 05:25:10;;;;;;;;;0.00;0.00;;;;;13.43;75.09;98864.44;5101825;27;47567;-75
2021/12/28 05:27:36;;;;;;;;;0.00;0.00;;;;;13.43;75.19;98860.00;5108690;27;46189;-77
2021/12/28 05:30:04;;;;;;;;;1.00;0.00;;;;;13.43;74.69;98873.16;5101732;27;45833;-75
2021/12/28 05:32:29;;;;;;;;;0.50;0.00;;;;;13.45;75.00;98879.06;5102982;27;45662;-74
2021/12/28 05:34:55;;;;;;;;;0.00;0.00;;;;;13.47;75.07;98875.44;5107985;27;46657;-74
2021/12/28 05:37:21;;;;;;;;;0.00;0.00;;;;;13.46;74.69;98882.50;5094593;27;45639;-77
2021/12/28 05:39:46;;;;;;;;;0.75;0.00;;;;;13.48;74.47;98882.34;5099850;27;45572;-76
2021/12/28 05:42:11;;;;;;;;;1.00;0.00;;;;;13.50;74.58;98882.97;5102397;27;45416;-73
2021/12/28 05:44:37;;;;;;;;;0.00;0.00;;;;;13.50;74.63;98875.09;5115284;27;46866;-74
2021/12/28 05:47:02;;;;;;;;;0.00;0.00;;;;;13.40;74.47;98883.19;5102202;27;46900;-72
2021/12/28 05:49:28;;;;;;;;;0.00;0.00;;;;;13.46;74.34;98885.13;5096006;27;45682;-74
2021/12/28 05:51:53;;;;;;;;;0.00;0.00;;;;;13.50;74.46;98907.47;5095406;27;45578;-72
2021/12/28 05:54:19;;;;;;;;;1.00;0.00;;;;;13.44;74.24;98890.56;5097674;27;45611;-75
2021/12/28 05:56:45;;;;;;;;;0.00;0.00;;;;;13.48;74.18;98917.38;5094141;27;46182;-75
2021/12/28 05:59:10;;;;;;;;;0.00;0.00;;;;;13.42;73.78;98889.09;5101750;27;45655;-74
2021/12/28 06:01:37;;;;;;;;;0.00;0.00;;;;;13.48;74.07;98896.31;5108204;27;45736;-76
2021/12/28 06:04:04;;;;;;;;;0.00;0.00;;;;;13.51;74.00;98908.31;5110577;27;46429;-74
2021/12/28 06:06:29;;;;;;;;;0.00;0.00;;;;;13.52;73.68;98907.31;5097210;27;46915;-75
2021/12/28 06:08:55;;;;;;;;;0.00;0.00;;;;;13.53;73.66;98915.06;5076349;27;45933;-74
2021/12/28 06:11:21;;;;;;;;;0.00;0.00;;;;;13.53;73.54;98912.41;5095004;27;45624;-77
2021/12/28 06:13:47;;;;;;;;;1.50;0.00;;;;;13.53;73.58;98925.56;5094134;27;46378;-74
2021/12/28 06:16:12;;;;;;;;;1.00;0.00;;;;;13.57;73.55;98934.75;5093981;27;47474;-75
2021/12/28 06:18:38;;;;;;;;;0.00;0.00;;;;;13.58;73.63;98932.97;5094468;27;45623;-73
2021/12/28 06:21:04;;;;;;;;;0.00;0.00;;;;;13.49;73.39;98934.81;5094823;27;45749;-74
2021/12/28 06:23:30;;;;;;;;;0.00;0.00;;;;;13.55;73.61;98938.56;5106990;27;47286;-75
2021/12/28 06:25:55;;;;;;;;;0.75;0.75;;;;;13.55;73.64;98938.56;5114454;27;45896;-76
2021/12/28 06:28:21;;;;;;;;;1.00;0.00;;;;;13.55;73.57;98949.88;5095010;27;46272;-74
2021/12/28 06:30:46;;;;;;;;;1.50;0.00;;;;;13.56;73.22;98950.72;5094548;27;45738;-75
2021/12/28 06:33:12;;;;;;;;;2.00;0.00;;;;;13.52;73.02;98952.88;5108641;27;45802;-74
2021/12/28 06:35:37;;;;;;;;;0.75;0.00;;;;;13.48;73.02;98954.19;5112352;27;45908;-75
2021/12/28 06:38:03;;;;;;;;;0.25;0.00;;;;;13.51;73.26;98968.81;5094975;27;45664;-74
2021/12/28 06:40:28;;;;;;;;;1.75;0.25;;;;;13.49;72.89;98984.78;5094223;27;45655;-73
2021/12/28 06:42:54;;;;;;;;;0.00;0.00;;;;;13.44;72.85;98980.00;5098931;27;46525;-73
2021/12/28 06:45:20;;;;;;;;;0.00;0.00;;;;;13.44;73.03;99001.06;5095218;27;46096;-73
2021/12/28 06:47:45;;;;;;;;;0.75;0.00;;;;;13.41;73.03;98980.34;5107239;27;45658;-74
2021/12/28 06:50:11;;;;;;;;;1.00;0.00;;;;;13.38;72.94;98980.69;5107135;27;45585;-75
2021/12/28 06:52:38;;;;;;;;;0.25;0.00;;;;;13.35;72.46;98995.97;5089162;27;45604;-73
2021/12/28 06:55:05;;;;;;;;;2.00;1.00;;;;;13.37;72.79;98994.00;5106960;27;45949;-75
2021/12/28 06:57:30;;;;;;;;;1.50;1.00;;;;;13.34;72.69;98994.31;5095296;27;45637;-73
2021/12/28 06:59:56;;;;;;;;;2.75;1.00;;;;;13.36;72.75;98985.28;5102749;27;45717;-75
2021/12/28 07:02:21;;;;;;;;;2.00;0.00;;;;;13.37;72.63;98979.06;5075978;27;48538;-74
2021/12/28 07:04:47;;;;;;;;;0.00;0.00;;;;;13.36;72.65;98980.03;5101297;27;46030;-75
2021/12/28 07:07:13;;;;;;;;;2.00;0.25;;;;;13.36;72.11;98989.72;5107097;27;45634;-74
2021/12/28 07:09:39;;;;;;;;;1.00;0.25;;;;;13.35;72.28;98995.97;5105803;27;45630;-74
2021/12/28 07:12:05;;;;;;;;;1.75;0.00;;;;;13.35;72.15;98986.28;5100321;27;46108;-75
2021/12/28 07:14:31;;;;;;;;;0.25;0.25;;;;;13.36;72.28;98997.63;5098883;27;46196;-74
2021/12/28 07:16:57;;;;;;;;;2.00;1.00;;;;;13.36;72.28;98990.56;5097953;27;45657;-75
2021/12/28 07:19:23;;;;;;;;;0.00;0.00;;;;;13.33;72.26;98984.81;5101828;27;45581;-77
2021/12/28 07:21:49;;;;;;;;;1.25;0.00;;;;;13.35;72.05;98991.53;5106919;27;46621;-75
2021/12/28 07:24:15;;;;;;;;;0.25;0.00;;;;;13.37;72.25;98989.56;5091478;27;46878;-74
2021/12/28 07:26:40;;;;;;;;;0.00;0.00;;;;;13.38;71.97;99001.75;5093327;27;45758;-74
2021/12/28 07:29:06;;;;;;;;;0.00;0.00;;;;;13.38;71.78;99006.19;5105606;27;45878;-75
2021/12/28 07:31:33;;;;;;;;;1.50;0.75;;;;;13.37;72.29;99008.00;5098610;27;45778;-73
2021/12/28 07:33:59;;;;;;;;;1.25;0.00;;;;;13.38;72.11;99008.81;5111889;27;46285;-74
2021/12/28 07:36:24;;;;;;;;;0.00;0.00;;;;;13.39;72.34;99002.53;5099686;27;45695;-75
2021/12/28 07:38:50;;;;;;;;;1.00;0.25;;;;;13.37;72.34;99001.91;5083601;27;45907;-75
2021/12/28 07:41:16;;;;;;;;;0.75;0.00;;;;;13.34;71.94;99013.56;5095555;27;45655;-74
2021/12/28 07:43:42;;;;;;;;;0.75;0.00;;;;;13.38;72.04;99014.06;5099099;27;45871;-75
2021/12/28 07:46:07;;;;;;;;;0.00;0.00;;;;;13.38;72.16;99024.59;5106452;27;45804;-74
2021/12/28 07:48:33;;;;;;;;;1.00;0.00;;;;;13.42;71.68;99031.16;5106637;27;45528;-75
2021/12/28 07:50:59;;;;;;;;;1.25;0.25;;;;;13.40;71.92;99055.00;5099469;27;46358;-74
2021/12/28 07:53:24;;;;;;;;;1.00;0.75;;;;;13.42;71.72;99049.56;5099622;27;46317;-77
2021/12/28 07:55:49;;;;;;;;;0.25;0.00;;;;;13.41;72.15;99058.44;5112794;27;46090;-76
2021/12/28 07:58:15;;;;;;;;;1.50;0.75;;;;;13.42;71.86;99058.28;5100715;27;45788;-76
2021/12/28 08:00:41;;;;;;;;;2.50;0.00;;;;;13.40;71.81;99057.63;5106820;27;45681;-74
2021/12/28 08:03:07;;;;;;;;;1.00;0.00;;;;;13.45;71.83;99059.75;5092796;27;45676;-74
2021/12/28 08:05:34;;;;;;;;;0.50;0.00;;;;;13.39;72.14;99061.25;5097004;27;45592;-73
2021/12/28 08:07:59;;;;;;;;;1.75;0.00;;;;;13.42;71.92;99060.09;5100230;27;45954;-76
2021/12/28 08:10:25;;;;;;;;;0.75;0.00;;;;;13.47;72.16;99073.56;5093842;27;46504;-74
2021/12/28 08:12:52;;;;;;;;;0.00;0.00;;;;;13.46;72.23;99071.94;5092567;27;46180;-75
2021/12/28 08:15:19;;;;;;;;;0.50;0.00;;;;;13.40;72.65;99065.53;5092430;27;45595;-75
2021/12/28 08:17:44;;;;;;;;;2.00;0.25;;;;;13.41;72.79;99084.75;5087127;27;45909;-74
2021/12/28 08:20:12;;;;;;;;;1.50;1.00;;;;;13.39;72.86;99089.34;5092601;27;46246;-74
2021/12/28 08:22:38;;;;;;;;;2.00;0.00;;;;;13.33;73.21;99095.28;5092735;27;45892;-75
2021/12/28 08:25:06;;;;;;;;;1.00;0.00;;;;;13.34;73.29;99103.00;5092066;27;45633;-75
2021/12/28 08:27:32;;;;;;;;;0.00;0.00;;;;;13.32;73.65;99096.28;5092433;27;45629;-75
2021/12/28 08:29:57;;;;;;;;;2.00;0.25;;;;;13.26;73.64;99100.38;5083149;27;47871;-73
2021/12/28 08:32:23;;;;;;;;;1.50;0.00;;;;;13.16;73.68;99083.94;5092678;27;46296;-74
2021/12/28 08:34:49;;;;;;;;;1.25;0.00;;;;;13.25;73.80;99116.31;5108812;27;45633;-74
2021/12/28 08:37:15;;;;;;;;;0.50;0.00;;;;;13.22;74.71;99124.53;5103654;27;45889;-73
2021/12/28 08:39:40;;;;;;;;;0.75;0.75;;;;;13.19;74.70;99130.94;5092241;27;45621;-74
2021/12/28 08:42:06;;;;;;;;;0.00;0.00;;;;;13.12;75.13;99131.75;5093651;27;45633;-74
2021/12/28 08:44:31;;;;;;;;;0.50;0.00;;;;;13.10;75.16;99145.03;5095367;27;45865;-75
2021/12/28 08:46:57;;;;;;;;;0.75;0.00;;;;;13.03;75.31;99134.31;5095655;27;45708;-74
2021/12/28 08:49:25;;;;;;;;;1.00;0.25;;;;;13.04;75.33;99149.13;5111069;27;47311;-74
2021/12/28 08:51:50;;;;;;;;;0.25;0.00;;;;;12.95;76.30;99141.38;5095897;27;46180;-77
2021/12/28 08:54:15;;;;;;;;;0.75;0.00;;;;;13.02;76.39;99151.06;5095546;27;45592;-77
2021/12/28 08:56:41;;;;;;;;;0.00;0.00;;;;;13.00;76.40;99146.97;5095562;27;45603;-76
2021/12/28 08:59:06;;;;;;;;;0.00;0.00;;;;;12.95;76.39;99138.75;5102912;27;46345;-74
2021/12/28 09:01:32;;;;;;;;;0.00;0.00;;;;;12.97;76.61;99149.91;5116240;27;46243;-74
2021/12/28 09:03:57;;;;;;;;;0.00;0.00;;;;;12.92;76.44;99149.56;5101149;27;45513;-78
2021/12/28 09:06:23;;;;;;;;;0.00;0.00;;;;;12.96;76.38;99143.81;5077542;27;45844;-75
2021/12/28 09:08:49;;;;;;;;;1.00;0.00;;;;;12.93;75.77;99138.06;5101738;27;45760;-76
2021/12/28 09:11:14;;;;;;;;;1.00;0.00;;;;;12.96;75.83;99143.00;5095610;27;46119;-78
2021/12/28 09:13:39;;;;;;;;;0.00;0.00;;;;;13.02;75.87;99145.81;5107697;27;45906;-77
2021/12/28 09:16:05;;;;;;;;;0.00;0.00;;;;;13.02;75.78;99164.22;5095488;27;45971;-77
2021/12/28 09:18:31;;;;;;;;;2.00;0.00;;;;;13.06;75.73;99161.28;5095562;27;45679;-80
2021/12/28 09:20:57;;;;;;;;;0.00;0.00;;;;;13.06;75.36;99159.50;5095398;27;45970;-79
2021/12/28 09:23:23;;;;;;;;;0.00;0.00;;;;;13.08;74.79;99146.97;5095079;27;45568;-73
2021/12/28 09:25:49;;;;;;;;;1.00;0.00;;;;;13.10;74.44;99165.22;5090132;27;45579;-75
2021/12/28 09:28:14;;;;;;;;;1.00;0.00;;;;;13.08;74.10;99157.50;5094937;27;45711;-77
2021/12/28 09:30:42;;;;;;;;;2.00;1.00;;;;;13.16;73.42;99159.38;5102505;27;45693;-74
2021/12/28 09:33:08;;;;;;;;;0.00;0.00;;;;;13.18;73.27;99167.91;5110966;27;45638;-77
2021/12/28 09:35:33;;;;;;;;;1.75;1.00;;;;;13.16;72.53;99149.69;5094513;27;45611;-78
2021/12/28 09:37:59;;;;;;;;;1.00;0.25;;;;;13.20;71.97;99161.50;5094725;27;46309;-74
2021/12/28 09:40:25;;;;;;;;;0.00;0.00;;;;;13.24;71.61;99162.81;5095272;27;46295;-78
2021/12/28 09:42:50;;;;;;;;;1.25;0.00;;;;;13.16;71.88;99148.84;5100620;27;45700;-78
2021/12/28 09:45:16;;;;;;;;;1.75;1.00;;;;;13.28;71.25;99177.28;5090753;27;45713;-75
2021/12/28 09:47:43;;;;;;;;;1.25;1.00;;;;;13.31;69.73;99187.50;5095257;27;45777;-77
2021/12/28 09:50:14;;;;;;;;;2.50;1.00;;;;;13.30;70.01;99182.41;5095318;27;45996;-78
2021/12/28 09:52:41;;;;;;;;;3.75;1.00;;;;;13.32;69.54;99189.16;5094386;27;45839;-81
2021/12/28 09:55:07;;;;;;;;;3.50;0.75;;;;;13.33;68.92;99187.34;5093659;27;45754;-80
2021/12/28 09:57:33;;;;;;;;;2.00;0.25;;;;;13.30;68.74;99196.38;5095871;27;47318;-79
2021/12/28 09:59:59;;;;;;;;;3.25;0.75;;;;;13.34;68.82;99197.69;5108395;27;46127;-79
2021/12/28 10:02:25;;;;;;;;;4.00;1.00;;;;;13.37;67.81;99197.38;5094930;27;45997;-80
2021/12/28 10:05:07;;;;;;;;;2.00;1.00;;;;;13.39;67.80;99203.28;5111419;27;45678;-81
2021/12/28 10:07:37;;;;;;;;;2.00;1.00;;;;;13.29;67.29;99186.84;5094739;27;46744;-78
2021/12/28 10:10:06;;;;;;;;;6.00;1.00;;;;;13.42;66.81;99213.50;5094870;27;46034;-79
2021/12/28 10:12:41;;;;;;;;;2.00;1.25;;;;;13.45;65.80;99234.22;5108552;27;45701;-79
2021/12/28 10:15:11;;;;;;;;;3.25;1.00;;;;;13.47;65.73;99206.94;5101279;27;45698;-78
2021/12/28 10:17:38;;;;;;;;;2.25;1.00;;;;;13.47;65.73;99215.66;5101175;27;47426;-76
2021/12/28 10:20:26;;;;;;;;;2.25;1.50;;;;;13.49;62.49;99203.16;5097404;27;46347;-73
2021/12/28 10:23:02;;;;;;;;;1.75;1.00;;;;;13.50;64.32;99227.66;5105223;27;45787;-74
2021/12/28 10:25:32;;;;;;;;;1.50;1.00;;;;;13.45;63.94;99246.56;5098352;27;47701;-78
2021/12/28 10:28:04;;;;;;;;;2.25;1.50;;;;;13.48;64.02;99219.94;5088120;27;47456;-79
2021/12/28 10:30:31;;;;;;;;;3.75;2.00;;;;;13.52;64.72;99236.22;5094146;27;46484;-77
2021/12/28 10:33:00;;;;;;;;;2.50;1.00;;;;;13.51;64.30;99229.28;5100707;27;45748;-77
2021/12/28 10:35:32;;;;;;;;;5.00;2.25;;;;;13.54;64.87;99226.38;5081692;27;45664;-75
2021/12/28 10:38:08;;;;;;;;;3.00;1.00;;;;;13.55;65.10;99235.91;5100937;27;46446;-78
2021/12/28 10:40:38;;;;;;;;;3.25;1.00;;;;;13.58;64.95;99244.28;5105371;27;46350;-77
2021/12/28 10:43:11;;;;;;;;;3.25;1.75;;;;;13.59;63.77;99234.59;5107399;27;45740;-79
2021/12/28 10:45:43;;;;;;;;;7.25;2.50;;;;;13.58;64.00;99223.25;5104570;27;45888;-77
2021/12/28 10:48:22;;;;;;;;;0.75;0.00;;;;;13.59;62.67;99239.84;5100444;27;46525;-77
2021/12/28 10:51:07;;;;;;;;;2.75;0.25;;;;;13.57;63.80;99237.38;5100540;27;46045;-77
2021/12/28 10:53:49;;;;;;;;;4.00;3.00;;;;;13.59;63.85;99237.22;5114314;27;46508;-76
2021/12/28 10:56:15;;;;;;;;;4.75;2.00;;;;;13.57;62.78;99233.91;5081865;27;45748;-79
2021/12/28 10:58:46;;;;;;;;;3.25;1.25;;;;;13.61;62.61;99220.28;5101725;27;46304;-79
2021/12/28 11:01:32;;;;;;;;;5.00;2.50;;;;;13.60;63.31;99246.78;5095861;27;47171;-78
2021/12/28 11:03:59;;;;;;;;;4.25;2.25;;;;;13.61;63.36;99238.69;5106643;27;45687;-78
2021/12/28 11:06:30;;;;;;;;;3.75;1.75;;;;;13.62;63.75;99253.50;5109305;27;46036;-81
2021/12/28 11:09:04;;;;;;;;;4.00;2.00;;;;;13.61;62.25;99254.47;5094412;27;46512;-78
2021/12/28 11:11:29;;;;;;;;;4.50;2.00;;;;;13.63;62.83;99260.41;5104357;27;47173;-81
2021/12/28 11:14:07;;;;;;;;;4.00;1.75;;;;;13.63;62.05;99256.97;5106929;27;45724;-81
2021/12/28 11:16:34;;;;;;;;;3.50;2.00;;;;;13.61;62.97;99259.75;5093271;27;45659;-78
2021/12/28 11:19:03;;;;;;;;;4.75;1.00;;;;;13.59;62.52;99253.84;5107035;27;46615;-78
2021/12/28 11:21:41;;;;;;;;;2.50;0.00;;;;;13.59;62.04;99261.72;5093095;27;45937;-79
2021/12/28 11:24:15;;;;;;;;;1.75;1.50;;;;;13.53;62.17;99277.34;5086195;27;45779;-80
2021/12/28 11:26:49;;;;;;;;;3.75;1.00;;;;;13.56;62.68;99271.75;5093022;27;45751;-80
2021/12/28 11:29:27;;;;;;;;;4.00;2.00;;;;;13.55;62.24;99284.06;5092867;27;47277;-79
2021/12/28 11:32:01;;;;;;;;;3.50;1.50;;;;;13.55;62.45;99309.59;5097562;27;47153;-78
2021/12/28 11:34:33;;;;;;;;;2.25;1.00;;;;;13.54;61.98;99310.56;5078691;27;45822;-79
2021/12/28 11:37:15;;;;;;;;;2.75;2.00;;;;;13.50;62.15;99269.75;5106125;27;45605;-79
2021/12/28 11:39:46;;;;;;;;;2.25;1.00;;;;;13.53;61.05;99282.59;5106496;27;45997;-80